Data for 03/10/2010

Time Sea-Level Adjusted Pressure Absolute Pressure Temperature Relative Humidity Dew Point   
(mb) (inHg) (mb) (inHg) (C) (F) (%) (C) (F)
00:05 1008 29.77 838 24.75 -2.8 27 96 -3.4 25.9
00:10 1008 29.77 838 24.75 -2.8 27 96 -3.3 26
00:15 1008 29.77 838 24.75 -2.8 27 96 -3.4 25.8
00:20 1008 29.77 838 24.75 -2.8 26.9 96 -3.4 25.8
00:25 1008 29.77 838 24.75 -2.8 27 96 -3.4 25.9
00:30 1008 29.77 838 24.75 -2.7 27.1 96 -3.3 26.1
00:35 1008 29.77 838 24.75 -2.7 27.2 96 -3.2 26.2
00:40 1008 29.77 838 24.75 -2.6 27.3 96 -3.2 26.3
00:45 1008 29.77 837 24.72 -2.6 27.4 96 -3.1 26.4
00:50 1008 29.77 837 24.72 -2.5 27.5 96 -3.1 26.4
00:55 1008 29.77 838 24.75 -2.5 27.6 96 -3.1 26.5
01:00 1008 29.77 838 24.75 -2.5 27.6 96 -3.1 26.5
01:05 1008 29.77 838 24.75 -2.5 27.6 95 -3.1 26.4
01:10 1008 29.77 838 24.75 -2.5 27.5 95 -3.2 26.3
01:15 1008 29.77 838 24.75 -2.5 27.5 95 -3.2 26.3
01:20 1008 29.77 838 24.75 -2.5 27.5 95 -3.2 26.3
01:25 1008 29.77 838 24.75 -2.5 27.4 95 -3.3 26.1
01:30 1009 29.8 838 24.75 -2.6 27.4 95 -3.3 26.1
01:35 1009 29.8 838 24.75 -2.5 27.5 95 -3.1 26.3
01:40 1009 29.8 838 24.75 -2.3 27.8 95 -3.1 26.5
01:45 1009 29.8 838 24.75 -2.3 27.9 94 -3.1 26.4
01:50 1009 29.8 838 24.75 -2.4 27.7 94 -3.2 26.3
01:55 1009 29.8 838 24.75 -2.4 27.6 94 -3.3 26.1
02:00 1009 29.8 838 24.75 -2.4 27.7 94 -3.2 26.3
02:05 1009 29.8 838 24.75 -2.3 27.8 94 -3.2 26.3
02:10 1009 29.8 838 24.75 -2.3 27.9 94 -3.2 26.3
02:15 1009 29.8 838 24.75 -2.4 27.6 94 -3.3 26.1
02:20 1009 29.8 838 24.75 -2.5 27.5 94 -3.4 26
02:25 1009 29.8 838 24.75 -2.6 27.4 94 -3.4 25.9
02:30 1009 29.8 838 24.75 -2.5 27.4 94 -3.4 26
02:35 1009 29.8 838 24.75 -2.5 27.5 94 -3.4 25.9
02:40 1008 29.77 838 24.75 -2.5 27.4 94 -3.4 25.9
02:45 1009 29.8 838 24.75 -2.6 27.4 94 -3.4 25.8
02:50 1008 29.77 838 24.75 -2.5 27.4 94 -3.4 25.8
02:55 1008 29.77 838 24.75 -2.5 27.4 94 -3.4 25.8
03:00 1008 29.77 838 24.75 -2.5 27.4 94 -3.4 25.9
03:05 1008 29.77 838 24.75 -2.6 27.3 94 -3.5 25.8
03:10 1008 29.77 838 24.75 -2.7 27.2 94 -3.5 25.7
03:15 1008 29.77 838 24.75 -2.7 27.2 94 -3.5 25.6
03:20 1008 29.77 838 24.75 -2.7 27.1 94 -3.5 25.6
03:25 1008 29.77 838 24.75 -2.7 27.1 94 -3.6 25.5
03:30 1008 29.77 838 24.75 -2.8 27 94 -3.6 25.5
03:35 1008 29.77 838 24.75 -2.8 27 94 -3.6 25.4
03:40 1008 29.77 838 24.75 -2.8 26.9 94 -3.6 25.5
03:45 1008 29.77 838 24.75 -2.8 26.9 94 -3.7 25.4
03:50 1008 29.77 838 24.75 -2.8 26.9 94 -3.7 25.4
03:55 1008 29.77 838 24.75 -2.8 27 93 -3.7 25.3
04:00 1008 29.77 838 24.75 -2.7 27.1 93 -3.7 25.4
04:05 1008 29.77 838 24.75 -2.8 27 93 -3.7 25.3
04:10 1008 29.77 838 24.75 -2.8 26.9 93 -3.8 25.2
04:15 1008 29.77 838 24.75 -2.9 26.8 94 -3.8 25.2
04:20 1008 29.77 838 24.75 -2.9 26.7 93 -3.8 25.1
04:25 1008 29.77 838 24.75 -3 26.7 94 -3.8 25.1
04:30 1008 29.77 838 24.75 -3 26.7 94 -3.9 25.1
04:35 1008 29.77 838 24.75 -3 26.6 93 -3.9 24.9
04:40 1009 29.8 838 24.75 -3 26.6 93 -3.9 24.9
04:45 1009 29.8 838 24.75 -3 26.6 93 -4 24.7
04:50 1009 29.8 838 24.75 -3.1 26.5 93 -4.1 24.6
04:55 1009 29.8 838 24.75 -3.1 26.4 93 -4.1 24.6
05:00 1009 29.8 838 24.75 -3.2 26.3 93 -4.1 24.7
05:05 1009 29.8 838 24.75 -3.2 26.3 93 -4.2 24.5
05:10 1009 29.8 838 24.75 -3.2 26.2 94 -4.1 24.6
05:15 1009 29.8 838 24.75 -3.2 26.3 93 -4.2 24.5
05:20 1009 29.8 838 24.75 -3.2 26.2 93 -4.2 24.4
05:25 1009 29.8 838 24.75 -3.2 26.2 93 -4.2 24.5
05:30 1009 29.8 838 24.75 -3.3 26.1 93 -4.2 24.4
05:35 1009 29.8 838 24.75 -3.2 26.2 93 -4.3 24.3
05:40 1009 29.8 838 24.75 -3.2 26.2 93 -4.2 24.4
05:45 1009 29.8 838 24.75 -3.2 26.3 93 -4.2 24.5
05:50 1009 29.8 838 24.75 -3.2 26.3 93 -4.1 24.5
05:55 1009 29.8 838 24.75 -3.1 26.3 93 -4.2 24.5
06:00 1009 29.8 838 24.75 -3.1 26.4 92 -4.2 24.5
06:05 1009 29.8 838 24.75 -3.1 26.5 92 -4.1 24.6
06:10 1009 29.8 838 24.75 -3 26.6 92 -4.1 24.5
06:15 1009 29.8 838 24.75 -3 26.5 92 -4.2 24.5
06:20 1009 29.8 838 24.75 -3.1 26.5 93 -4.1 24.6
06:25 1009 29.8 838 24.75 -3.2 26.2 93 -4.2 24.4
06:30 1009 29.8 838 24.75 -3.3 26.1 93 -4.3 24.2
06:35 1009 29.8 838 24.75 -3.3 26 94 -4.2 24.4
06:40 1009 29.8 838 24.75 -3.3 26.1 93 -4.2 24.4
06:45 1009 29.8 838 24.75 -3.4 25.9 94 -4.2 24.4
06:50 1009 29.8 838 24.75 -3.4 25.9 94 -4.3 24.3
06:55 1009 29.8 838 24.75 -3.5 25.8 94 -4.3 24.2
07:00 1009 29.8 839 24.78 -3.5 25.6 94 -4.4 24.2
07:05 1009 29.8 839 24.78 -3.6 25.6 94 -4.4 24.1
07:10 1009 29.8 839 24.78 -3.5 25.6 94 -4.4 24
07:15 1010 29.83 839 24.78 -3.4 25.9 93 -4.3 24.2
07:20 1010 29.83 839 24.78 -3.2 26.3 92 -4.3 24.3
07:25 1010 29.83 839 24.78 -3.1 26.4 92 -4.3 24.3
07:30 1010 29.83 839 24.78 -3 26.5 91 -4.3 24.3
07:35 1010 29.83 839 24.78 -3.1 26.5 91 -4.3 24.3
07:40 1010 29.83 839 24.78 -3.2 26.3 92 -4.4 24.1
07:45 1010 29.83 839 24.78 -3.3 26.1 92 -4.4 24.1
07:50 1010 29.83 839 24.78 -3.2 26.2 92 -4.4 24.2
07:55 1010 29.83 839 24.78 -3.1 26.5 91 -4.3 24.3
08:00 1010 29.83 839 24.78 -2.9 26.9 91 -4.2 24.4
08:05 1010 29.83 839 24.78 -2.7 27.1 89 -4.3 24.3
08:10 1010 29.83 839 24.78 -2.7 27.1 90 -4.2 24.5
08:15 1010 29.83 839 24.78 -2.5 27.5 88 -4.2 24.4
08:20 1010 29.83 839 24.78 -2.3 27.8 87 -4.3 24.3
08:25 1010 29.83 839 24.78 -2.6 27.4 88 -4.3 24.2
08:30 1010 29.83 839 24.78 -2.7 27.2 89 -4.3 24.3
08:35 1010 29.83 839 24.78 -2.7 27.1 89 -4.3 24.3
08:40 1010 29.83 839 24.78 -2.9 26.8 90 -4.3 24.2
08:45 1010 29.83 840 24.81 -2.8 27 90 -4.2 24.4
08:50 1010 29.83 840 24.81 -2.5 27.4 88 -4.2 24.5
08:55 1010 29.83 840 24.81 -2.5 27.6 88 -4.2 24.4
09:00 1010 29.83 840 24.81 -2.4 27.6 88 -4.1 24.6
09:05 1011 29.85 840 24.81 -2.2 28.1 87 -4.1 24.6
09:10 1011 29.85 840 24.81 -2 28.4 85 -4.2 24.4
09:15 1011 29.85 840 24.81 -2 28.3 86 -4 24.7
09:20 1011 29.85 840 24.81 -2.2 28 86 -4.2 24.5
09:25 1011 29.85 840 24.81 -2.2 28 87 -4.1 24.6
09:30 1011 29.85 840 24.81 -2.2 28 87 -4.2 24.5
09:35 1011 29.85 840 24.81 -2.3 27.9 87 -4.3 24.3
09:40 1011 29.85 840 24.81 -2.3 27.9 86 -4.3 24.2
09:45 1011 29.85 840 24.81 -2.3 27.8 85 -4.5 23.9
09:50 1011 29.85 840 24.81 -2.4 27.7 85 -4.7 23.6
09:55 1011 29.85 840 24.81 -2.1 28.2 84 -4.5 23.9
10:00 1011 29.85 840 24.81 -2.4 27.7 84 -4.8 23.4
10:05 1011 29.85 840 24.81 -2.2 28.1 81 -5 22.9
10:10 1011 29.85 840 24.81 -2.1 28.3 83 -4.6 23.7
10:15 1011 29.85 840 24.81 -2.3 27.8 83 -4.9 23.1
10:20 1011 29.85 840 24.81 -2.2 28.1 81 -5.1 22.8
10:25 1011 29.85 840 24.81 -2.4 27.6 82 -5.1 22.8
10:30 1011 29.85 840 24.81 -2.1 28.2 80 -5 23
10:35 1011 29.85 840 24.81 -2.1 28.3 81 -4.8 23.3
10:40 1011 29.85 840 24.81 -1.9 28.5 80 -4.9 23.1
10:45 1011 29.85 840 24.81 -1.8 28.8 79 -5 23
10:50 1011 29.85 840 24.81 -1.9 28.7 79 -5.1 22.8
10:55 1011 29.85 840 24.81 -1.1 30 74 -5.2 22.6
11:00 1011 29.85 840 24.81 -1.2 29.9 77 -4.8 23.4
11:05 1011 29.85 841 24.83 -1.1 30 75 -4.9 23.1
11:10 1011 29.85 841 24.83 -0.9 30.4 74 -5 23
11:15 1011 29.85 841 24.83 -1.4 29.6 73 -5.5 22.1
11:20 1011 29.85 841 24.83 -0.9 30.4 71 -5.6 22
11:25 1011 29.85 841 24.83 -0.8 30.6 73 -5 23.1
11:30 1011 29.85 841 24.83 -2.2 28 79 -5.4 22.3
11:35 1011 29.85 841 24.83 -2.3 27.9 78 -5.6 21.9
11:40 1011 29.85 841 24.83 -2.2 28.1 76 -5.9 21.4
11:45 1011 29.85 841 24.83 -2.3 27.8 77 -5.7 21.7
11:50 1011 29.85 841 24.83 -2.6 27.4 78 -5.8 21.5
11:55 1011 29.85 841 24.83 -2.4 27.6 77 -6 21.3
12:00 1011 29.85 841 24.83 -1.9 28.6 75 -5.8 21.5
12:05 1012 29.88 841 24.83 -2 28.5 74 -5.9 21.3
12:10 1012 29.88 841 24.83 -1.6 29.1 75 -5.5 22.2
12:15 1012 29.88 841 24.83 -1.4 29.5 71 -5.9 21.3
12:20 1012 29.88 841 24.83 -0.4 31.2 63 -6.6 20.2
12:25 1012 29.88 841 24.83 -0.4 31.3 63 -6.5 20.3
12:30 1012 29.88 841 24.83 -0.1 31.7 61 -6.8 19.7
12:35 1012 29.88 841 24.83 0.2 32.4 59 -6.8 19.7
12:40 1012 29.88 841 24.83 0.7 33.2 60 -6.3 20.7
12:45 1012 29.88 841 24.83 0.7 33.3 58 -6.6 20.1
12:50 1012 29.88 841 24.83 1 33.7 55 -7 19.3
12:55 1012 29.88 841 24.83 1 33.9 59 -6 21.2
13:00 1012 29.88 841 24.83 0.6 33 57 -6.9 19.6
13:05 1012 29.88 841 24.83 0.8 33.5 57 -6.6 20.1
13:10 1012 29.88 841 24.83 0.5 32.8 61 -6.3 20.7
13:15 1011 29.85 841 24.83 0.9 33.6 59 -6.3 20.6
13:20 1011 29.85 841 24.83 0.8 33.4 59 -6.2 20.8
13:25 1011 29.85 841 24.83 0.4 32.7 59 -6.7 19.9
13:30 1011 29.85 841 24.83 -0.4 31.2 64 -6.4 20.5
13:35 1011 29.85 841 24.83 -0.6 31 64 -6.5 20.3
13:40 1011 29.85 841 24.83 -0 31.9 61 -6.8 19.8
13:45 1011 29.85 841 24.83 -0.2 31.6 63 -6.4 20.4
13:50 1011 29.85 841 24.83 0.1 32.2 59 -7 19.4
13:55 1011 29.85 841 24.83 -0.4 31.2 65 -6.3 20.7
14:00 1011 29.85 841 24.83 -0.4 31.3 63 -6.6 20.1
14:05 1011 29.85 841 24.83 -0.4 31.3 64 -6.3 20.6
14:10 1011 29.85 841 24.83 -0.4 31.4 65 -6.1 21.1
14:15 1011 29.85 841 24.83 0.1 32.2 63 -6 21.2
14:20 1011 29.85 841 24.83 1.1 33.9 61 -5.6 21.9
14:25 1011 29.85 841 24.83 0.6 33 62 -5.9 21.5
14:30 1011 29.85 841 24.83 0.1 32.1 64 -6 21.2
14:35 1011 29.85 841 24.83 0.3 32.5 63 -6 21.2
14:40 1011 29.85 841 24.83 0.3 32.5 66 -5.3 22.5
14:45 1011 29.85 841 24.83 -0 31.9 62 -6.4 20.4
14:50 1011 29.85 841 24.83 -0.4 31.3 63 -6.5 20.3
14:55 1011 29.85 841 24.83 -0.3 31.4 63 -6.6 20.2
15:00 1012 29.88 841 24.83 -0.4 31.2 62 -6.8 19.8
15:05 1012 29.88 841 24.83 -0.1 31.8 63 -6.3 20.7
15:10 1012 29.88 841 24.83 -0.3 31.5 63 -6.4 20.5
15:15 1012 29.88 841 24.83 0.1 32.2 61 -6.5 20.3
15:20 1012 29.88 841 24.83 -0.1 31.8 61 -6.7 19.9
15:25 1012 29.88 841 24.83 -0.3 31.5 61 -6.9 19.5
15:30 1012 29.88 841 24.83 -0.2 31.7 62 -6.7 19.9
15:35 1012 29.88 841 24.83 -0.1 31.8 60 -7.1 19.2
15:40 1012 29.88 841 24.83 0.1 32.3 60 -6.8 19.8
15:45 1012 29.88 841 24.83 -0.1 31.9 62 -6.6 20.1
15:50 1012 29.88 841 24.83 -0.1 31.8 60 -7 19.4
15:55 1012 29.88 841 24.83 0.1 32.1 60 -6.9 19.6
16:00 1012 29.88 841 24.83 0.2 32.3 59 -7 19.4
16:05 1012 29.88 841 24.83 0.4 32.6 59 -6.7 19.9
16:10 1012 29.88 841 24.83 0.2 32.3 60 -6.8 19.8
16:15 1012 29.88 841 24.83 0.1 32.2 60 -6.8 19.8
16:20 1012 29.88 841 24.83 0.3 32.6 58 -7.1 19.2
16:25 1012 29.88 841 24.83 0.7 33.3 56 -7.1 19.1
16:30 1012 29.88 841 24.83 0.3 32.6 58 -7 19.4
16:35 1012 29.88 841 24.83 0.2 32.4 58 -7 19.4
16:40 1012 29.88 841 24.83 0.5 32.8 57 -7.2 19
16:45 1012 29.88 841 24.83 0.6 33 57 -6.9 19.6
16:50 1012 29.88 841 24.83 0.7 33.3 54 -7.4 18.6
16:55 1012 29.88 841 24.83 0.9 33.6 55 -7.2 19
17:00 1012 29.88 841 24.83 0.7 33.3 53 -7.7 18.1
17:05 1012 29.88 841 24.83 1.1 34 51 -7.9 17.9
17:10 1012 29.88 841 24.83 1.3 34.3 50 -8 17.7
17:15 1012 29.88 841 24.83 0.9 33.6 51 -8.1 17.5
17:20 1012 29.88 841 24.83 0.8 33.4 50 -8.4 16.9
17:25 1012 29.88 841 24.83 0.9 33.6 51 -8.2 17.2
17:30 1012 29.88 841 24.83 0.8 33.4 51 -8.3 17
17:35 1012 29.88 841 24.83 0.7 33.2 50 -8.6 16.6
17:40 1012 29.88 841 24.83 0.7 33.3 50 -8.6 16.5
17:45 1012 29.88 841 24.83 0.6 33.1 50 -8.6 16.6
17:50 1012 29.88 841 24.83 0.5 32.9 50 -8.7 16.3
17:55 1012 29.88 842 24.86 0.4 32.6 51 -8.7 16.3
18:00 1012 29.88 842 24.86 0.3 32.5 52 -8.4 16.9
18:05 1012 29.88 842 24.86 -0.1 31.9 54 -8.3 17.1
18:10 1012 29.88 842 24.86 -0.3 31.4 54 -8.5 16.7
18:15 1012 29.88 842 24.86 -0.2 31.7 55 -8.3 17.1
18:20 1013 29.91 842 24.86 -0.1 31.8 54 -8.4 16.9
18:25 1013 29.91 842 24.86 -0.2 31.6 56 -8 17.6
18:30 1013 29.91 842 24.86 -0.5 31.1 57 -8 17.6
18:35 1013 29.91 842 24.86 -0.7 30.8 56 -8.5 16.7
18:40 1013 29.91 842 24.86 -1.1 30 57 -8.6 16.5
18:45 1013 29.91 842 24.86 -1.4 29.6 58 -8.6 16.6
18:50 1013 29.91 842 24.86 -1.7 28.9 59 -8.8 16.2
18:55 1013 29.91 842 24.86 -2 28.5 59 -8.9 15.9
19:00 1013 29.91 842 24.86 -2 28.5 60 -8.8 16.1
19:05 1013 29.91 842 24.86 -2 28.5 59 -8.8 16.1
19:10 1013 29.91 842 24.86 -2.1 28.2 60 -9 15.8
19:15 1013 29.91 842 24.86 -2.3 27.9 60 -9 15.8
19:20 1013 29.91 842 24.86 -2.4 27.7 60 -9.1 15.7
19:25 1013 29.91 842 24.86 -2.6 27.3 62 -8.9 15.9
19:30 1013 29.91 842 24.86 -2.8 26.9 62 -9.1 15.7
19:35 1013 29.91 842 24.86 -2.8 27 62 -9.1 15.6
19:40 1013 29.91 842 24.86 -2.8 26.9 62 -9.2 15.4
19:45 1013 29.91 842 24.86 -2.9 26.8 62 -9.2 15.4
19:50 1013 29.91 842 24.86 -3 26.5 62 -9.3 15.2
19:55 1013 29.91 843 24.89 -3.1 26.5 61 -9.6 14.6
20:00 1013 29.91 843 24.89 -2.9 26.7 62 -9.3 15.2
20:05 1013 29.91 843 24.89 -2.9 26.7 59 -9.8 14.3
20:10 1013 29.91 843 24.89 -3 26.5 60 -9.8 14.4
20:15 1014 29.94 843 24.89 -3.3 26.1 60 -10 14
20:20 1014 29.94 843 24.89 -3.6 25.5 62 -9.8 14.3
20:25 1014 29.94 843 24.89 -3.8 25.1 62 -10.1 13.9
20:30 1014 29.94 843 24.89 -3.7 25.3 61 -10.2 13.7
20:35 1014 29.94 843 24.89 -3.2 26.3 61 -9.6 14.7
20:40 1014 29.94 843 24.89 -3.1 26.4 62 -9.4 15
20:45 1014 29.94 843 24.89 -3.1 26.5 61 -9.7 14.6
20:50 1014 29.94 843 24.89 -3 26.5 60 -9.8 14.4
20:55 1014 29.94 843 24.89 -3.2 26.2 60 -9.8 14.3
21:00 1014 29.94 843 24.89 -3.7 25.3 63 -9.7 14.6
21:05 1014 29.94 843 24.89 -3.9 25 65 -9.6 14.7
21:10 1014 29.94 843 24.89 -4 24.8 67 -9.3 15.2
21:15 1014 29.94 843 24.89 -4 24.7 67 -9.3 15.3
21:20 1014 29.94 843 24.89 -3.8 25.2 67 -9 15.9
21:25 1014 29.94 843 24.89 -3.6 25.5 68 -8.7 16.3
21:30 1014 29.94 844 24.92 -3.8 25.1 69 -8.8 16.2
21:35 1014 29.94 844 24.92 -4.1 24.6 71 -8.7 16.3
21:40 1014 29.94 844 24.92 -4.1 24.6 71 -8.7 16.4
21:45 1015 29.97 844 24.92 -4 24.8 71 -8.6 16.5
21:50 1015 29.97 844 24.92 -3.9 25 70 -8.5 16.7
21:55 1015 29.97 844 24.92 -3.8 25.1 71 -8.3 17
22:00 1015 29.97 844 24.92 -3.7 25.3 69 -8.6 16.6
22:05 1015 29.97 844 24.92 -3.6 25.5 69 -8.5 16.7
22:10 1015 29.97 844 24.92 -3.6 25.5 68 -8.6 16.5
22:15 1015 29.97 844 24.92 -3.6 25.5 68 -8.6 16.4
22:20 1015 29.97 844 24.92 -3.6 25.5 68 -8.7 16.3
22:25 1015 29.97 844 24.92 -3.6 25.5 67 -8.9 15.9
22:30 1015 29.97 844 24.92 -3.7 25.3 65 -9.3 15.3
22:35 1015 29.97 844 24.92 -3.8 25.2 65 -9.4 15.1
22:40 1015 29.97 844 24.92 -3.8 25.1 66 -9.4 15.2
22:45 1015 29.97 844 24.92 -4.3 24.2 67 -9.5 14.8
22:50 1015 29.97 844 24.92 -4.4 24 66 -9.8 14.3
22:55 1015 29.97 844 24.92 -4.2 24.4 67 -9.6 14.8
23:00 1015 29.97 844 24.92 -4.4 24.1 68 -9.5 14.9
23:05 1015 29.97 844 24.92 -5.4 22.3 72 -9.7 14.6
23:10 1015 29.97 844 24.92 -5.6 22 71 -10 14.1
23:15 1015 29.97 845 24.95 -5.4 22.2 70 -10.1 13.8
23:20 1015 29.97 845 24.95 -5.2 22.7 69 -10 14
23:25 1015 29.97 845 24.95 -5.5 22.1 70 -10.1 13.9
23:30 1015 29.97 845 24.95 -5.7 21.8 69 -10.5 13.1
23:35 1015 29.97 845 24.95 -5.7 21.7 68 -10.8 12.6
23:40 1015 29.97 845 24.95 -5.6 22 65 -11.1 12
23:45 1015 29.97 845 24.95 -5.3 22.4 65 -10.9 12.4
23:50 1015 29.97 845 24.95 -5.3 22.6 65 -10.8 12.5
23:55 1015 29.97 845 24.95 -5.1 22.9 65 -10.7 12.8
24:00 1016 30 845 24.95 -4.7 23.5 64 -10.6 13